sensor_id;sensor_type;location;lat;lon;timestamp;P1;durP1;ratioP1;P2;durP2;ratioP2
14306;SDS011;7237;49.500;11.400;2023-07-31T00:00:58;3.33;;;2.10;;
14306;SDS011;7237;49.500;11.400;2023-07-31T00:03:25;3.17;;;2.13;;
14306;SDS011;7237;49.500;11.400;2023-07-31T00:05:52;4.20;;;2.50;;
14306;SDS011;7237;49.500;11.400;2023-07-31T00:08:19;3.97;;;2.70;;
14306;SDS011;7237;49.500;11.400;2023-07-31T00:10:46;3.07;;;2.50;;
14306;SDS011;7237;49.500;11.400;2023-07-31T00:13:14;3.30;;;2.30;;
14306;SDS011;7237;49.500;11.400;2023-07-31T00:15:41;4.17;;;2.40;;
14306;SDS011;7237;49.500;11.400;2023-07-31T00:18:08;6.83;;;3.17;;
14306;SDS011;7237;49.500;11.400;2023-07-31T00:20:36;2.90;;;2.50;;
14306;SDS011;7237;49.500;11.400;2023-07-31T00:23:03;5.77;;;2.50;;
14306;SDS011;7237;49.500;11.400;2023-07-31T00:25:30;2.50;;;2.10;;
14306;SDS011;7237;49.500;11.400;2023-07-31T00:27:57;6.80;;;2.60;;
14306;SDS011;7237;49.500;11.400;2023-07-31T00:30:25;4.30;;;2.70;;
14306;SDS011;7237;49.500;11.400;2023-07-31T00:32:53;3.43;;;2.57;;
14306;SDS011;7237;49.500;11.400;2023-07-31T00:35:20;2.37;;;2.03;;
14306;SDS011;7237;49.500;11.400;2023-07-31T00:37:47;3.90;;;2.40;;
14306;SDS011;7237;49.500;11.400;2023-07-31T00:40:14;2.73;;;2.20;;
14306;SDS011;7237;49.500;11.400;2023-07-31T00:42:41;3.13;;;2.03;;
14306;SDS011;7237;49.500;11.400;2023-07-31T00:45:08;4.63;;;2.27;;
14306;SDS011;7237;49.500;11.400;2023-07-31T00:47:37;5.23;;;2.43;;
14306;SDS011;7237;49.500;11.400;2023-07-31T00:50:04;5.17;;;2.23;;
14306;SDS011;7237;49.500;11.400;2023-07-31T00:52:32;4.30;;;2.90;;
14306;SDS011;7237;49.500;11.400;2023-07-31T00:54:59;4.23;;;2.47;;
14306;SDS011;7237;49.500;11.400;2023-07-31T00:57:26;2.90;;;2.10;;
14306;SDS011;7237;49.500;11.400;2023-07-31T00:59:54;3.87;;;2.50;;
14306;SDS011;7237;49.500;11.400;2023-07-31T01:02:21;4.17;;;2.23;;
14306;SDS011;7237;49.500;11.400;2023-07-31T01:04:49;3.93;;;2.03;;
14306;SDS011;7237;49.500;11.400;2023-07-31T01:07:17;4.23;;;2.63;;
14306;SDS011;7237;49.500;11.400;2023-07-31T01:09:48;2.57;;;2.33;;
14306;SDS011;7237;49.500;11.400;2023-07-31T01:12:16;4.73;;;2.60;;
14306;SDS011;7237;49.500;11.400;2023-07-31T01:14:50;3.50;;;2.63;;
14306;SDS011;7237;49.500;11.400;2023-07-31T01:17:17;4.03;;;2.70;;
14306;SDS011;7237;49.500;11.400;2023-07-31T01:19:44;3.53;;;2.90;;
14306;SDS011;7237;49.500;11.400;2023-07-31T01:22:16;3.10;;;2.40;;
14306;SDS011;7237;49.500;11.400;2023-07-31T01:24:54;3.67;;;2.50;;
14306;SDS011;7237;49.500;11.400;2023-07-31T01:27:24;4.27;;;2.37;;
14306;SDS011;7237;49.500;11.400;2023-07-31T01:29:55;3.40;;;2.20;;
14306;SDS011;7237;49.500;11.400;2023-07-31T01:32:23;2.80;;;2.40;;
14306;SDS011;7237;49.500;11.400;2023-07-31T01:34:51;5.53;;;2.20;;
14306;SDS011;7237;49.500;11.400;2023-07-31T01:37:19;4.53;;;2.10;;
14306;SDS011;7237;49.500;11.400;2023-07-31T01:39:46;2.87;;;2.27;;
14306;SDS011;7237;49.500;11.400;2023-07-31T01:42:13;2.87;;;2.40;;
14306;SDS011;7237;49.500;11.400;2023-07-31T01:44:42;5.03;;;2.50;;
14306;SDS011;7237;49.500;11.400;2023-07-31T01:47:09;6.13;;;2.30;;
14306;SDS011;7237;49.500;11.400;2023-07-31T01:49:36;5.67;;;2.63;;
14306;SDS011;7237;49.500;11.400;2023-07-31T01:52:03;2.30;;;2.10;;
14306;SDS011;7237;49.500;11.400;2023-07-31T01:54:30;5.83;;;2.47;;
14306;SDS011;7237;49.500;11.400;2023-07-31T01:56:58;7.70;;;2.30;;
14306;SDS011;7237;49.500;11.400;2023-07-31T01:59:25;6.73;;;2.67;;
14306;SDS011;7237;49.500;11.400;2023-07-31T02:01:55;2.43;;;2.20;;
14306;SDS011;7237;49.500;11.400;2023-07-31T02:04:22;3.23;;;2.03;;
14306;SDS011;7237;49.500;11.400;2023-07-31T02:06:49;4.13;;;2.13;;
14306;SDS011;7237;49.500;11.400;2023-07-31T02:09:16;5.17;;;1.97;;
14306;SDS011;7237;49.500;11.400;2023-07-31T02:11:43;2.30;;;2.10;;
14306;SDS011;7237;49.500;11.400;2023-07-31T02:14:10;5.30;;;2.27;;
14306;SDS011;7237;49.500;11.400;2023-07-31T02:16:37;3.77;;;2.13;;
14306;SDS011;7237;49.500;11.400;2023-07-31T02:19:06;5.23;;;2.17;;
14306;SDS011;7237;49.500;11.400;2023-07-31T02:21:33;2.63;;;2.20;;
14306;SDS011;7237;49.500;11.400;2023-07-31T02:24:00;3.33;;;2.37;;
14306;SDS011;7237;49.500;11.400;2023-07-31T02:26:27;3.03;;;2.17;;
14306;SDS011;7237;49.500;11.400;2023-07-31T02:28:54;3.93;;;2.30;;
14306;SDS011;7237;49.500;11.400;2023-07-31T02:31:21;3.70;;;2.30;;
14306;SDS011;7237;49.500;11.400;2023-07-31T02:33:48;3.17;;;2.00;;
14306;SDS011;7237;49.500;11.400;2023-07-31T02:36:17;4.50;;;1.73;;
14306;SDS011;7237;49.500;11.400;2023-07-31T02:38:44;3.07;;;1.63;;
14306;SDS011;7237;49.500;11.400;2023-07-31T02:41:11;6.97;;;2.20;;
14306;SDS011;7237;49.500;11.400;2023-07-31T02:43:38;2.90;;;1.83;;
14306;SDS011;7237;49.500;11.400;2023-07-31T02:46:05;3.57;;;1.90;;
14306;SDS011;7237;49.500;11.400;2023-07-31T02:48:32;2.63;;;1.90;;
14306;SDS011;7237;49.500;11.400;2023-07-31T02:50:59;4.27;;;2.00;;
14306;SDS011;7237;49.500;11.400;2023-07-31T02:53:28;3.07;;;1.60;;
14306;SDS011;7237;49.500;11.400;2023-07-31T02:55:55;5.33;;;1.73;;
14306;SDS011;7237;49.500;11.400;2023-07-31T02:58:22;3.73;;;1.60;;
14306;SDS011;7237;49.500;11.400;2023-07-31T03:00:49;3.73;;;1.60;;
14306;SDS011;7237;49.500;11.400;2023-07-31T03:03:16;3.83;;;1.70;;
14306;SDS011;7237;49.500;11.400;2023-07-31T03:05:43;6.93;;;2.00;;
14306;SDS011;7237;49.500;11.400;2023-07-31T03:08:10;4.40;;;1.67;;
14306;SDS011;7237;49.500;11.400;2023-07-31T03:10:39;4.23;;;1.80;;
14306;SDS011;7237;49.500;11.400;2023-07-31T03:13:06;4.03;;;2.03;;
14306;SDS011;7237;49.500;11.400;2023-07-31T03:15:33;5.27;;;1.97;;
14306;SDS011;7237;49.500;11.400;2023-07-31T03:18:00;2.27;;;1.87;;
14306;SDS011;7237;49.500;11.400;2023-07-31T03:20:27;2.97;;;1.70;;
14306;SDS011;7237;49.500;11.400;2023-07-31T03:22:54;3.53;;;1.57;;
14306;SDS011;7237;49.500;11.400;2023-07-31T03:25:21;3.33;;;1.57;;
14306;SDS011;7237;49.500;11.400;2023-07-31T03:27:49;4.50;;;1.70;;
14306;SDS011;7237;49.500;11.400;2023-07-31T03:30:16;3.87;;;1.73;;
14306;SDS011;7237;49.500;11.400;2023-07-31T03:32:44;7.47;;;2.00;;
14306;SDS011;7237;49.500;11.400;2023-07-31T03:35:11;3.40;;;1.77;;
14306;SDS011;7237;49.500;11.400;2023-07-31T03:37:38;2.33;;;1.40;;
14306;SDS011;7237;49.500;11.400;2023-07-31T03:40:05;1.97;;;1.60;;
14306;SDS011;7237;49.500;11.400;2023-07-31T03:42:32;4.50;;;2.20;;
14306;SDS011;7237;49.500;11.400;2023-07-31T03:45:01;7.50;;;1.90;;
14306;SDS011;7237;49.500;11.400;2023-07-31T03:47:29;1.97;;;1.50;;
14306;SDS011;7237;49.500;11.400;2023-07-31T03:49:56;2.57;;;1.43;;
14306;SDS011;7237;49.500;11.400;2023-07-31T03:52:23;2.83;;;1.40;;
14306;SDS011;7237;49.500;11.400;2023-07-31T03:54:50;1.50;;;1.20;;
14306;SDS011;7237;49.500;11.400;2023-07-31T03:57:17;4.43;;;1.77;;
14306;SDS011;7237;49.500;11.400;2023-07-31T03:59:44;2.57;;;1.57;;
14306;SDS011;7237;49.500;11.400;2023-07-31T04:02:13;2.93;;;1.43;;
14306;SDS011;7237;49.500;11.400;2023-07-31T04:04:40;2.13;;;1.30;;
14306;SDS011;7237;49.500;11.400;2023-07-31T04:07:07;4.03;;;1.43;;
14306;SDS011;7237;49.500;11.400;2023-07-31T04:09:34;5.70;;;1.57;;
14306;SDS011;7237;49.500;11.400;2023-07-31T04:12:01;3.95;;;1.20;;
14306;SDS011;7237;49.500;11.400;2023-07-31T04:14:28;4.23;;;1.67;;
14306;SDS011;7237;49.500;11.400;2023-07-31T04:16:55;1.55;;;1.30;;
14306;SDS011;7237;49.500;11.400;2023-07-31T04:19:24;4.20;;;1.80;;
14306;SDS011;7237;49.500;11.400;2023-07-31T04:21:51;1.92;;;1.55;;
14306;SDS011;7237;49.500;11.400;2023-07-31T04:24:18;2.45;;;1.58;;
14306;SDS011;7237;49.500;11.400;2023-07-31T04:26:49;3.55;;;1.55;;
14306;SDS011;7237;49.500;11.400;2023-07-31T04:29:16;2.90;;;1.63;;
14306;SDS011;7237;49.500;11.400;2023-07-31T04:31:43;3.63;;;1.63;;
14306;SDS011;7237;49.500;11.400;2023-07-31T04:34:10;2.33;;;1.52;;
14306;SDS011;7237;49.500;11.400;2023-07-31T04:36:39;5.57;;;1.60;;
14306;SDS011;7237;49.500;11.400;2023-07-31T04:39:06;5.03;;;1.77;;
14306;SDS011;7237;49.500;11.400;2023-07-31T04:41:33;3.42;;;1.90;;
14306;SDS011;7237;49.500;11.400;2023-07-31T04:44:00;3.10;;;1.38;;
14306;SDS011;7237;49.500;11.400;2023-07-31T04:46:28;5.72;;;2.25;;
14306;SDS011;7237;49.500;11.400;2023-07-31T04:48:55;2.83;;;1.52;;
14306;SDS011;7237;49.500;11.400;2023-07-31T04:51:23;2.15;;;1.30;;
14306;SDS011;7237;49.500;11.400;2023-07-31T04:53:51;2.50;;;1.45;;
14306;SDS011;7237;49.500;11.400;2023-07-31T04:56:18;1.70;;;1.30;;
14306;SDS011;7237;49.500;11.400;2023-07-31T04:58:45;5.32;;;1.65;;
14306;SDS011;7237;49.500;11.400;2023-07-31T05:01:12;3.10;;;1.40;;
14306;SDS011;7237;49.500;11.400;2023-07-31T05:03:40;1.85;;;1.50;;
14306;SDS011;7237;49.500;11.400;2023-07-31T05:06:07;2.63;;;1.30;;
14306;SDS011;7237;49.500;11.400;2023-07-31T05:08:34;3.17;;;1.50;;
14306;SDS011;7237;49.500;11.400;2023-07-31T05:11:02;3.42;;;1.45;;
14306;SDS011;7237;49.500;11.400;2023-07-31T05:13:30;4.63;;;1.75;;
14306;SDS011;7237;49.500;11.400;2023-07-31T05:15:57;4.88;;;1.30;;
14306;SDS011;7237;49.500;11.400;2023-07-31T05:18:24;2.75;;;1.30;;
14306;SDS011;7237;49.500;11.400;2023-07-31T05:20:51;2.83;;;1.55;;
14306;SDS011;7237;49.500;11.400;2023-07-31T05:23:18;3.20;;;1.38;;
14306;SDS011;7237;49.500;11.400;2023-07-31T05:25:45;2.40;;;1.58;;
14306;SDS011;7237;49.500;11.400;2023-07-31T05:28:13;3.55;;;1.58;;
14306;SDS011;7237;49.500;11.400;2023-07-31T05:30:40;2.92;;;1.40;;
14306;SDS011;7237;49.500;11.400;2023-07-31T05:33:08;2.80;;;1.30;;
14306;SDS011;7237;49.500;11.400;2023-07-31T05:35:35;3.22;;;1.35;;
14306;SDS011;7237;49.500;11.400;2023-07-31T05:38:02;2.92;;;1.48;;
14306;SDS011;7237;49.500;11.400;2023-07-31T05:40:31;3.78;;;1.40;;
14306;SDS011;7237;49.500;11.400;2023-07-31T05:42:58;1.92;;;1.35;;
14306;SDS011;7237;49.500;11.400;2023-07-31T05:45:27;2.33;;;1.60;;
14306;SDS011;7237;49.500;11.400;2023-07-31T05:47:54;4.72;;;1.70;;
14306;SDS011;7237;49.500;11.400;2023-07-31T05:50:21;4.57;;;1.63;;
14306;SDS011;7237;49.500;11.400;2023-07-31T05:52:48;3.95;;;1.52;;
14306;SDS011;7237;49.500;11.400;2023-07-31T05:55:15;4.00;;;1.60;;
14306;SDS011;7237;49.500;11.400;2023-07-31T05:57:42;3.20;;;1.80;;
14306;SDS011;7237;49.500;11.400;2023-07-31T06:00:12;2.67;;;1.65;;
14306;SDS011;7237;49.500;11.400;2023-07-31T06:02:40;3.25;;;1.30;;
14306;SDS011;7237;49.500;11.400;2023-07-31T06:05:08;2.08;;;1.30;;
14306;SDS011;7237;49.500;11.400;2023-07-31T06:07:35;3.13;;;1.85;;
14306;SDS011;7237;49.500;11.400;2023-07-31T06:10:02;3.83;;;1.50;;
14306;SDS011;7237;49.500;11.400;2023-07-31T06:12:30;4.15;;;1.88;;
14306;SDS011;7237;49.500;11.400;2023-07-31T06:14:58;4.30;;;1.42;;
14306;SDS011;7237;49.500;11.400;2023-07-31T06:17:25;2.92;;;1.50;;
14306;SDS011;7237;49.500;11.400;2023-07-31T06:19:53;2.53;;;1.50;;
14306;SDS011;7237;49.500;11.400;2023-07-31T06:22:20;3.50;;;1.50;;
14306;SDS011;7237;49.500;11.400;2023-07-31T06:24:47;2.75;;;1.65;;
14306;SDS011;7237;49.500;11.400;2023-07-31T06:27:14;2.63;;;1.45;;
14306;SDS011;7237;49.500;11.400;2023-07-31T06:29:42;2.33;;;1.55;;
14306;SDS011;7237;49.500;11.400;2023-07-31T06:32:09;2.58;;;1.60;;
14306;SDS011;7237;49.500;11.400;2023-07-31T06:34:36;3.88;;;1.63;;
14306;SDS011;7237;49.500;11.400;2023-07-31T06:37:04;6.30;;;1.75;;
14306;SDS011;7237;49.500;11.400;2023-07-31T06:39:31;2.78;;;1.67;;
14306;SDS011;7237;49.500;11.400;2023-07-31T06:41:58;3.60;;;1.77;;
14306;SDS011;7237;49.500;11.400;2023-07-31T06:44:26;1.90;;;1.25;;
14306;SDS011;7237;49.500;11.400;2023-07-31T06:46:53;4.30;;;1.30;;
14306;SDS011;7237;49.500;11.400;2023-07-31T06:49:20;7.82;;;1.90;;
14306;SDS011;7237;49.500;11.400;2023-07-31T06:51:47;4.80;;;2.00;;
14306;SDS011;7237;49.500;11.400;2023-07-31T06:54:15;2.35;;;1.50;;
14306;SDS011;7237;49.500;11.400;2023-07-31T06:56:42;3.17;;;1.52;;
14306;SDS011;7237;49.500;11.400;2023-07-31T06:59:09;6.35;;;1.73;;
14306;SDS011;7237;49.500;11.400;2023-07-31T07:01:36;3.08;;;1.63;;
14306;SDS011;7237;49.500;11.400;2023-07-31T07:04:03;3.10;;;1.40;;
14306;SDS011;7237;49.500;11.400;2023-07-31T07:06:30;3.50;;;1.70;;
14306;SDS011;7237;49.500;11.400;2023-07-31T07:08:58;2.35;;;1.50;;
14306;SDS011;7237;49.500;11.400;2023-07-31T07:11:26;2.97;;;1.80;;
14306;SDS011;7237;49.500;11.400;2023-07-31T07:13:53;3.83;;;1.70;;
14306;SDS011;7237;49.500;11.400;2023-07-31T07:16:20;3.33;;;1.63;;
14306;SDS011;7237;49.500;11.400;2023-07-31T07:18:47;3.45;;;1.60;;
14306;SDS011;7237;49.500;11.400;2023-07-31T07:21:14;3.50;;;1.63;;
14306;SDS011;7237;49.500;11.400;2023-07-31T07:23:43;3.30;;;1.70;;
14306;SDS011;7237;49.500;11.400;2023-07-31T07:26:10;2.10;;;1.30;;
14306;SDS011;7237;49.500;11.400;2023-07-31T07:28:38;2.42;;;1.23;;
14306;SDS011;7237;49.500;11.400;2023-07-31T07:31:05;4.05;;;1.63;;
14306;SDS011;7237;49.500;11.400;2023-07-31T07:33:32;3.90;;;1.65;;
14306;SDS011;7237;49.500;11.400;2023-07-31T07:36:00;6.90;;;1.80;;
14306;SDS011;7237;49.500;11.400;2023-07-31T07:38:27;5.03;;;2.08;;
14306;SDS011;7237;49.500;11.400;2023-07-31T07:40:54;2.65;;;1.60;;
14306;SDS011;7237;49.500;11.400;2023-07-31T07:43:21;2.08;;;1.52;;
14306;SDS011;7237;49.500;11.400;2023-07-31T07:45:49;4.00;;;1.98;;
14306;SDS011;7237;49.500;11.400;2023-07-31T07:48:17;4.10;;;1.92;;
14306;SDS011;7237;49.500;11.400;2023-07-31T07:50:44;3.58;;;2.08;;
14306;SDS011;7237;49.500;11.400;2023-07-31T07:53:11;4.78;;;1.63;;
14306;SDS011;7237;49.500;11.400;2023-07-31T07:55:38;3.13;;;1.60;;
14306;SDS011;7237;49.500;11.400;2023-07-31T07:58:05;3.70;;;2.15;;
14306;SDS011;7237;49.500;11.400;2023-07-31T08:00:32;3.95;;;2.05;;
14306;SDS011;7237;49.500;11.400;2023-07-31T08:03:01;5.03;;;1.85;;
14306;SDS011;7237;49.500;11.400;2023-07-31T08:05:28;4.45;;;1.88;;
14306;SDS011;7237;49.500;11.400;2023-07-31T08:07:59;5.07;;;2.10;;
14306;SDS011;7237;49.500;11.400;2023-07-31T08:10:26;4.40;;;1.90;;
14306;SDS011;7237;49.500;11.400;2023-07-31T08:12:53;3.35;;;1.90;;
14306;SDS011;7237;49.500;11.400;2023-07-31T08:15:20;4.55;;;2.13;;
14306;SDS011;7237;49.500;11.400;2023-07-31T08:17:47;4.38;;;2.17;;
14306;SDS011;7237;49.500;11.400;2023-07-31T08:20:15;5.03;;;2.05;;
14306;SDS011;7237;49.500;11.400;2023-07-31T08:22:42;6.80;;;1.63;;
14306;SDS011;7237;49.500;11.400;2023-07-31T08:25:10;2.60;;;1.77;;
14306;SDS011;7237;49.500;11.400;2023-07-31T08:27:37;1.92;;;1.70;;
14306;SDS011;7237;49.500;11.400;2023-07-31T08:30:04;5.50;;;2.35;;
14306;SDS011;7237;49.500;11.400;2023-07-31T08:32:32;2.40;;;2.10;;
14306;SDS011;7237;49.500;11.400;2023-07-31T08:34:59;5.88;;;2.40;;
14306;SDS011;7237;49.500;11.400;2023-07-31T08:37:27;3.22;;;1.90;;
14306;SDS011;7237;49.500;11.400;2023-07-31T08:39:54;4.20;;;1.85;;
14306;SDS011;7237;49.500;11.400;2023-07-31T08:42:21;4.18;;;2.13;;
14306;SDS011;7237;49.500;11.400;2023-07-31T08:44:50;4.75;;;2.20;;
14306;SDS011;7237;49.500;11.400;2023-07-31T08:47:17;3.10;;;1.85;;
14306;SDS011;7237;49.500;11.400;2023-07-31T08:49:45;3.40;;;1.85;;
14306;SDS011;7237;49.500;11.400;2023-07-31T08:52:13;4.18;;;2.08;;
14306;SDS011;7237;49.500;11.400;2023-07-31T08:54:41;5.18;;;1.92;;
14306;SDS011;7237;49.500;11.400;2023-07-31T08:57:08;4.43;;;2.15;;
14306;SDS011;7237;49.500;11.400;2023-07-31T08:59:36;5.45;;;2.25;;
14306;SDS011;7237;49.500;11.400;2023-07-31T09:02:05;3.10;;;2.13;;
14306;SDS011;7237;49.500;11.400;2023-07-31T09:04:32;3.25;;;1.98;;
14306;SDS011;7237;49.500;11.400;2023-07-31T09:07:00;2.10;;;1.80;;
14306;SDS011;7237;49.500;11.400;2023-07-31T09:09:28;7.00;;;2.30;;
14306;SDS011;7237;49.500;11.400;2023-07-31T09:11:56;3.22;;;2.13;;
14306;SDS011;7237;49.500;11.400;2023-07-31T09:14:24;6.85;;;1.92;;
14306;SDS011;7237;49.500;11.400;2023-07-31T09:16:52;3.13;;;1.80;;
14306;SDS011;7237;49.500;11.400;2023-07-31T09:19:26;3.95;;;2.40;;
14306;SDS011;7237;49.500;11.400;2023-07-31T09:21:53;4.13;;;1.73;;
14306;SDS011;7237;49.500;11.400;2023-07-31T09:24:26;5.00;;;1.90;;
14306;SDS011;7237;49.500;11.400;2023-07-31T09:26:54;3.00;;;2.08;;
14306;SDS011;7237;49.500;11.400;2023-07-31T09:29:23;4.22;;;2.00;;
14306;SDS011;7237;49.500;11.400;2023-07-31T09:31:51;5.43;;;2.00;;
14306;SDS011;7237;49.500;11.400;2023-07-31T09:34:19;5.93;;;2.10;;
14306;SDS011;7237;49.500;11.400;2023-07-31T09:36:47;3.58;;;2.10;;
14306;SDS011;7237;49.500;11.400;2023-07-31T09:39:15;6.15;;;2.72;;
14306;SDS011;7237;49.500;11.400;2023-07-31T09:41:42;3.28;;;2.08;;
14306;SDS011;7237;49.500;11.400;2023-07-31T09:44:10;6.40;;;2.83;;
14306;SDS011;7237;49.500;11.400;2023-07-31T09:46:38;3.28;;;2.00;;
14306;SDS011;7237;49.500;11.400;2023-07-31T09:49:06;3.35;;;1.75;;
14306;SDS011;7237;49.500;11.400;2023-07-31T09:51:35;2.33;;;2.00;;
14306;SDS011;7237;49.500;11.400;2023-07-31T09:54:04;2.78;;;1.73;;
14306;SDS011;7237;49.500;11.400;2023-07-31T09:56:31;3.95;;;1.80;;
14306;SDS011;7237;49.500;11.400;2023-07-31T09:58:59;2.25;;;1.67;;
14306;SDS011;7237;49.500;11.400;2023-07-31T10:01:26;2.25;;;1.60;;
14306;SDS011;7237;49.500;11.400;2023-07-31T10:03:54;6.25;;;2.05;;
14306;SDS011;7237;49.500;11.400;2023-07-31T10:06:22;4.15;;;2.10;;
14306;SDS011;7237;49.500;11.400;2023-07-31T10:08:50;4.75;;;1.92;;
14306;SDS011;7237;49.500;11.400;2023-07-31T10:11:18;2.88;;;1.90;;
14306;SDS011;7237;49.500;11.400;2023-07-31T10:13:46;3.63;;;1.73;;
14306;SDS011;7237;49.500;11.400;2023-07-31T10:16:13;4.70;;;1.85;;
14306;SDS011;7237;49.500;11.400;2023-07-31T10:18:41;3.30;;;2.03;;
14306;SDS011;7237;49.500;11.400;2023-07-31T10:21:10;4.10;;;1.80;;
14306;SDS011;7237;49.500;11.400;2023-07-31T10:23:38;2.50;;;1.73;;
14306;SDS011;7237;49.500;11.400;2023-07-31T10:26:05;3.35;;;1.90;;
14306;SDS011;7237;49.500;11.400;2023-07-31T10:28:34;4.32;;;1.80;;
14306;SDS011;7237;49.500;11.400;2023-07-31T10:31:01;2.78;;;1.65;;
14306;SDS011;7237;49.500;11.400;2023-07-31T10:33:29;5.20;;;1.70;;
14306;SDS011;7237;49.500;11.400;2023-07-31T10:38:50;3.75;;;1.90;;
14306;SDS011;7237;49.500;11.400;2023-07-31T10:41:17;3.05;;;1.80;;
14306;SDS011;7237;49.500;11.400;2023-07-31T10:43:45;3.28;;;1.83;;
14306;SDS011;7237;49.500;11.400;2023-07-31T10:46:13;3.33;;;2.00;;
14306;SDS011;7237;49.500;11.400;2023-07-31T10:48:41;3.45;;;1.90;;
14306;SDS011;7237;49.500;11.400;2023-07-31T10:51:08;3.13;;;1.65;;
14306;SDS011;7237;49.500;11.400;2023-07-31T10:53:37;2.90;;;1.70;;
14306;SDS011;7237;49.500;11.400;2023-07-31T10:56:06;3.72;;;2.15;;
14306;SDS011;7237;49.500;11.400;2023-07-31T10:58:34;4.38;;;1.90;;
14306;SDS011;7237;49.500;11.400;2023-07-31T11:01:02;4.95;;;2.13;;
14306;SDS011;7237;49.500;11.400;2023-07-31T11:06:11;3.15;;;1.90;;
14306;SDS011;7237;49.500;11.400;2023-07-31T11:08:41;4.00;;;1.90;;
14306;SDS011;7237;49.500;11.400;2023-07-31T11:11:10;4.03;;;2.08;;
14306;SDS011;7237;49.500;11.400;2023-07-31T11:13:41;4.15;;;1.92;;
14306;SDS011;7237;49.500;11.400;2023-07-31T11:16:08;5.50;;;2.10;;
14306;SDS011;7237;49.500;11.400;2023-07-31T11:18:37;2.08;;;1.70;;
14306;SDS011;7237;49.500;11.400;2023-07-31T11:21:05;3.70;;;1.85;;
14306;SDS011;7237;49.500;11.400;2023-07-31T11:23:32;3.13;;;2.00;;
14306;SDS011;7237;49.500;11.400;2023-07-31T11:25:59;2.97;;;1.75;;
14306;SDS011;7237;49.500;11.400;2023-07-31T11:28:30;4.22;;;1.85;;
14306;SDS011;7237;49.500;11.400;2023-07-31T11:30:58;2.63;;;1.90;;
14306;SDS011;7237;49.500;11.400;2023-07-31T11:33:25;3.22;;;2.15;;
14306;SDS011;7237;49.500;11.400;2023-07-31T11:35:52;4.32;;;2.25;;
14306;SDS011;7237;49.500;11.400;2023-07-31T11:38:23;2.90;;;2.00;;
14306;SDS011;7237;49.500;11.400;2023-07-31T11:40:50;3.65;;;2.20;;
14306;SDS011;7237;49.500;11.400;2023-07-31T11:43:18;2.95;;;1.90;;
14306;SDS011;7237;49.500;11.400;2023-07-31T11:45:47;7.07;;;2.28;;
14306;SDS011;7237;49.500;11.400;2023-07-31T11:48:18;4.18;;;2.17;;
14306;SDS011;7237;49.500;11.400;2023-07-31T11:50:45;2.58;;;1.63;;
14306;SDS011;7237;49.500;11.400;2023-07-31T11:53:14;3.00;;;2.35;;
14306;SDS011;7237;49.500;11.400;2023-07-31T11:55:42;7.82;;;2.38;;
14306;SDS011;7237;49.500;11.400;2023-07-31T11:58:09;10.15;;;3.33;;
14306;SDS011;7237;49.500;11.400;2023-07-31T12:00:36;6.38;;;2.22;;
14306;SDS011;7237;49.500;11.400;2023-07-31T12:03:05;5.82;;;2.42;;
14306;SDS011;7237;49.500;11.400;2023-07-31T12:05:32;3.25;;;1.80;;
14306;SDS011;7237;49.500;11.400;2023-07-31T12:07:59;2.33;;;1.90;;
14306;SDS011;7237;49.500;11.400;2023-07-31T12:10:27;10.43;;;2.55;;
14306;SDS011;7237;49.500;11.400;2023-07-31T12:12:58;5.25;;;2.20;;
14306;SDS011;7237;49.500;11.400;2023-07-31T12:15:29;3.72;;;1.83;;
14306;SDS011;7237;49.500;11.400;2023-07-31T12:17:57;5.32;;;2.22;;
14306;SDS011;7237;49.500;11.400;2023-07-31T12:20:25;3.85;;;2.30;;
14306;SDS011;7237;49.500;11.400;2023-07-31T12:22:52;3.83;;;2.05;;
14306;SDS011;7237;49.500;11.400;2023-07-31T12:25:23;4.07;;;1.85;;
14306;SDS011;7237;49.500;11.400;2023-07-31T12:27:50;13.00;;;2.70;;
14306;SDS011;7237;49.500;11.400;2023-07-31T12:30:26;5.32;;;2.47;;
14306;SDS011;7237;49.500;11.400;2023-07-31T12:32:54;4.80;;;1.80;;
14306;SDS011;7237;49.500;11.400;2023-07-31T12:35:21;6.40;;;2.03;;
14306;SDS011;7237;49.500;11.400;2023-07-31T12:37:49;3.00;;;2.28;;
14306;SDS011;7237;49.500;11.400;2023-07-31T12:40:16;4.82;;;2.40;;
14306;SDS011;7237;49.500;11.400;2023-07-31T12:42:43;5.20;;;2.00;;
14306;SDS011;7237;49.500;11.400;2023-07-31T12:45:10;5.80;;;2.22;;
14306;SDS011;7237;49.500;11.400;2023-07-31T12:47:37;3.08;;;1.95;;
14306;SDS011;7237;49.500;11.400;2023-07-31T12:50:05;4.32;;;1.90;;
14306;SDS011;7237;49.500;11.400;2023-07-31T12:52:32;3.40;;;1.85;;
14306;SDS011;7237;49.500;11.400;2023-07-31T12:55:01;4.20;;;2.40;;
14306;SDS011;7237;49.500;11.400;2023-07-31T12:57:28;12.30;;;3.20;;
14306;SDS011;7237;49.500;11.400;2023-07-31T12:59:55;3.35;;;2.15;;
14306;SDS011;7237;49.500;11.400;2023-07-31T13:02:22;7.07;;;3.08;;
14306;SDS011;7237;49.500;11.400;2023-07-31T13:04:49;4.80;;;2.35;;
14306;SDS011;7237;49.500;11.400;2023-07-31T13:07:17;4.05;;;2.65;;
14306;SDS011;7237;49.500;11.400;2023-07-31T13:09:44;6.13;;;2.60;;
14306;SDS011;7237;49.500;11.400;2023-07-31T13:12:12;4.10;;;2.20;;
14306;SDS011;7237;49.500;11.400;2023-07-31T13:14:39;3.60;;;2.00;;
14306;SDS011;7237;49.500;11.400;2023-07-31T13:17:06;2.47;;;1.98;;
14306;SDS011;7237;49.500;11.400;2023-07-31T13:19:34;3.10;;;2.03;;
14306;SDS011;7237;49.500;11.400;2023-07-31T13:22:01;3.90;;;2.13;;
14306;SDS011;7237;49.500;11.400;2023-07-31T13:24:29;3.03;;;2.20;;
14306;SDS011;7237;49.500;11.400;2023-07-31T13:26:56;5.45;;;2.60;;
14306;SDS011;7237;49.500;11.400;2023-07-31T13:29:25;6.97;;;2.85;;
14306;SDS011;7237;49.500;11.400;2023-07-31T13:31:52;3.95;;;2.47;;
14306;SDS011;7237;49.500;11.400;2023-07-31T13:34:19;3.38;;;2.58;;
14306;SDS011;7237;49.500;11.400;2023-07-31T13:36:46;6.30;;;2.67;;
14306;SDS011;7237;49.500;11.400;2023-07-31T13:39:13;5.15;;;2.88;;
14306;SDS011;7237;49.500;11.400;2023-07-31T13:41:40;5.32;;;2.78;;
14306;SDS011;7237;49.500;11.400;2023-07-31T13:44:07;3.85;;;2.40;;
14306;SDS011;7237;49.500;11.400;2023-07-31T13:46:36;3.60;;;2.53;;
14306;SDS011;7237;49.500;11.400;2023-07-31T13:49:03;4.88;;;2.85;;
14306;SDS011;7237;49.500;11.400;2023-07-31T13:51:30;5.55;;;2.85;;
14306;SDS011;7237;49.500;11.400;2023-07-31T13:53:57;6.00;;;2.90;;
14306;SDS011;7237;49.500;11.400;2023-07-31T13:56:24;3.30;;;2.55;;
14306;SDS011;7237;49.500;11.400;2023-07-31T13:58:51;2.78;;;2.50;;
14306;SDS011;7237;49.500;11.400;2023-07-31T14:01:18;4.68;;;3.00;;
14306;SDS011;7237;49.500;11.400;2023-07-31T14:03:47;4.47;;;2.40;;
14306;SDS011;7237;49.500;11.400;2023-07-31T14:06:14;3.47;;;2.45;;
14306;SDS011;7237;49.500;11.400;2023-07-31T14:08:41;4.68;;;2.65;;
14306;SDS011;7237;49.500;11.400;2023-07-31T14:11:08;4.03;;;2.35;;
14306;SDS011;7237;49.500;11.400;2023-07-31T14:13:35;3.00;;;2.55;;
14306;SDS011;7237;49.500;11.400;2023-07-31T14:16:02;3.25;;;2.30;;
14306;SDS011;7237;49.500;11.400;2023-07-31T14:18:29;3.22;;;2.42;;
14306;SDS011;7237;49.500;11.400;2023-07-31T14:20:57;2.72;;;2.40;;
14306;SDS011;7237;49.500;11.400;2023-07-31T14:23:25;3.60;;;2.30;;
14306;SDS011;7237;49.500;11.400;2023-07-31T14:25:52;5.70;;;2.83;;
14306;SDS011;7237;49.500;11.400;2023-07-31T14:28:19;4.35;;;2.72;;
14306;SDS011;7237;49.500;11.400;2023-07-31T14:30:46;5.95;;;2.30;;
14306;SDS011;7237;49.500;11.400;2023-07-31T14:33:13;4.32;;;2.30;;
14306;SDS011;7237;49.500;11.400;2023-07-31T14:35:40;3.60;;;2.40;;
14306;SDS011;7237;49.500;11.400;2023-07-31T14:38:08;4.05;;;2.78;;
14306;SDS011;7237;49.500;11.400;2023-07-31T14:40:35;4.55;;;2.40;;
14306;SDS011;7237;49.500;11.400;2023-07-31T14:43:03;3.35;;;2.20;;
14306;SDS011;7237;49.500;11.400;2023-07-31T14:45:30;4.50;;;2.60;;
14306;SDS011;7237;49.500;11.400;2023-07-31T14:47:57;3.65;;;2.50;;
14306;SDS011;7237;49.500;11.400;2023-07-31T14:50:25;5.03;;;2.50;;
14306;SDS011;7237;49.500;11.400;2023-07-31T14:52:52;3.25;;;2.38;;
14306;SDS011;7237;49.500;11.400;2023-07-31T14:55:20;4.10;;;2.40;;